MMCU/CUU METAR and TAF weather

Enter ICAO airport designator
Station Type Date Time Source
MMCU METAR 2022/01/26 13:40 UTC NOAA

MMCU 261340Z 00000KT 10SM SKC 01/M09 A3014


Station Type Date Time Source
MMCU Decoded METAR 2022/01/26 13:40 UTC NOAA

Chihuahua International Airport, Mexico (MMCU) 28-42N 105-58W
Jan 26, 2022 - 08:40 AM EST / 2022.01.26 1340 UTC
Wind: Calm:0
Visibility: 10 mile(s):0
Sky conditions: clear
Temperature: 33 F (1 C)
Dew Point: 15 F (-9 C)
Relative Humidity: 47%
Pressure (altimeter): 30.14 in. Hg (1020 hPa)
ob: MMCU 261340Z 00000KT 10SM SKC 01/M09 A3014
cycle: 13

Station Type Date Time Source
MMCU TAF 2022/01/26 06:51 UTC NOAA

TAF MMCU 260444Z 2606/2706 24005KT P5SM SCT250
FM261800 14012KT P6SM SCT100 BKN250
FM270500 14005KT P6SM SCT250

Example: see airport list